createdAt,value
2023-08-19T00:01:34.899Z,3.80
2023-08-19T00:04:03.021Z,3.80
2023-08-19T00:06:37.532Z,4.38
2023-08-19T00:09:06.566Z,4.88
2023-08-19T00:11:34.647Z,4.80
2023-08-19T00:14:03.043Z,4.72
2023-08-19T00:16:31.047Z,4.30
2023-08-19T00:18:58.979Z,4.50
2023-08-19T00:21:27.028Z,4.22
2023-08-19T00:23:58.125Z,4.50
2023-08-19T00:26:27.349Z,4.28
2023-08-19T00:28:55.218Z,4.32
2023-08-19T00:31:24.375Z,4.13
2023-08-19T00:33:52.279Z,3.70
2023-08-19T00:36:20.262Z,4.10
2023-08-19T00:38:50.001Z,3.95
2023-08-19T00:41:19.789Z,4.38
2023-08-19T00:43:47.667Z,3.97
2023-08-19T00:46:15.585Z,3.95
2023-08-19T00:48:43.823Z,3.78
2023-08-19T00:51:11.918Z,4.18
2023-08-19T00:53:39.906Z,4.00
2023-08-19T00:56:07.833Z,4.07
2023-08-19T00:58:37.023Z,4.25
2023-08-19T01:01:04.832Z,3.83
2023-08-19T01:03:32.747Z,4.60
2023-08-19T01:06:10.719Z,4.45
2023-08-19T01:08:44.908Z,4.57
2023-08-19T01:11:18.993Z,4.03
2023-08-19T01:14:01.061Z,4.20
2023-08-19T01:16:31.933Z,4.43
2023-08-19T01:19:00.790Z,4.38
2023-08-19T01:21:29.541Z,4.20
2023-08-19T01:24:00.832Z,4.35
2023-08-19T01:26:30.209Z,4.18
2023-08-19T01:28:58.283Z,4.22
2023-08-19T01:31:26.192Z,4.13
2023-08-19T01:33:54.186Z,4.55
2023-08-19T01:36:31.319Z,4.07
2023-08-19T01:39:04.165Z,4.20
2023-08-19T01:41:34.688Z,4.63
2023-08-19T01:44:04.044Z,4.45
2023-08-19T01:46:32.023Z,4.43
2023-08-19T01:48:59.965Z,4.38
2023-08-19T01:51:30.113Z,4.20
2023-08-19T01:53:58.093Z,4.05
2023-08-19T01:56:26.121Z,4.07
2023-08-19T01:58:55.659Z,3.78
2023-08-19T02:01:23.799Z,3.70
2023-08-19T02:03:51.706Z,3.97
2023-08-19T02:06:19.843Z,4.07
2023-08-19T02:08:47.766Z,3.88
2023-08-19T02:11:15.710Z,4.38
2023-08-19T02:13:43.644Z,4.30
2023-08-19T02:16:13.073Z,4.10
2023-08-19T02:18:41.020Z,3.70
2023-08-19T02:21:08.917Z,4.60
2023-08-19T02:23:36.829Z,4.40
2023-08-19T02:26:05.300Z,4.25
2023-08-19T02:28:33.219Z,4.38
2023-08-19T02:31:04.287Z,4.22
2023-08-19T02:33:33.703Z,4.35
2023-08-19T02:36:01.621Z,4.10
2023-08-19T02:38:29.569Z,4.07
2023-08-19T02:40:57.471Z,3.75
2023-08-19T02:43:25.424Z,3.85
2023-08-19T02:45:54.482Z,3.92
2023-08-19T02:48:22.536Z,3.70
2023-08-19T02:50:54.422Z,3.92
2023-08-19T02:53:22.376Z,3.75
2023-08-19T02:55:53.655Z,4.22
2023-08-19T02:58:21.581Z,4.28
2023-08-19T03:00:49.941Z,4.40
2023-08-19T03:03:18.571Z,4.10
2023-08-19T03:05:46.722Z,3.92
2023-08-19T03:08:16.059Z,4.18
2023-08-19T03:10:44.126Z,4.15
2023-08-19T03:13:12.018Z,4.72
2023-08-19T03:15:40.508Z,3.67
2023-08-19T03:18:08.579Z,4.18
2023-08-19T03:23:04.749Z,4.05
2023-08-19T03:25:33.994Z,4.32
2023-08-19T03:28:02.070Z,4.53
2023-08-19T03:30:29.922Z,4.30
2023-08-19T03:32:57.972Z,3.95
2023-08-19T03:35:25.863Z,4.50
2023-08-19T03:37:53.768Z,4.70
2023-08-19T03:40:21.883Z,4.18
2023-08-19T03:42:51.287Z,4.65
2023-08-19T03:45:19.316Z,4.82
2023-08-19T03:47:47.231Z,4.90
2023-08-19T03:50:15.603Z,3.90
2023-08-19T03:52:43.434Z,4.00
2023-08-19T03:55:11.449Z,4.10
2023-08-19T03:57:39.420Z,4.05
2023-08-19T04:00:10.453Z,4.57
2023-08-19T04:02:38.424Z,4.25
2023-08-19T04:05:09.185Z,4.57
2023-08-19T04:07:37.084Z,4.80
2023-08-19T04:10:06.187Z,4.18
2023-08-19T04:12:34.375Z,4.32
2023-08-19T04:15:02.229Z,4.78
2023-08-19T04:17:34.615Z,4.88
2023-08-19T04:20:02.986Z,4.45
2023-08-19T04:22:31.004Z,4.95
2023-08-19T04:24:58.957Z,4.97
2023-08-19T04:27:26.921Z,4.93
2023-08-19T04:29:54.936Z,4.78
2023-08-19T04:32:22.846Z,4.90
2023-08-19T04:34:52.115Z,4.70
2023-08-19T04:37:19.978Z,4.80
2023-08-19T04:39:47.845Z,4.18
2023-08-19T04:42:15.715Z,5.20
2023-08-19T04:44:43.671Z,4.53
2023-08-19T04:47:11.561Z,4.43
2023-08-19T04:49:40.580Z,5.00
2023-08-19T04:52:09.843Z,4.85
2023-08-19T04:54:37.715Z,4.43
2023-08-19T04:57:05.664Z,4.72
2023-08-19T04:59:33.497Z,4.18
2023-08-19T05:02:01.352Z,3.95
2023-08-19T05:04:29.286Z,3.70
2023-08-19T05:06:57.196Z,4.35
2023-08-19T05:09:26.375Z,4.25
2023-08-19T05:11:54.173Z,4.15
2023-08-19T05:14:22.025Z,5.18
2023-08-19T05:16:50.115Z,4.43
2023-08-19T05:19:19.630Z,4.80
2023-08-19T05:21:49.549Z,4.70
2023-08-19T05:24:17.770Z,4.68
2023-08-19T05:26:47.092Z,4.55
2023-08-19T05:29:15.485Z,4.78
2023-08-19T05:31:43.956Z,4.97
2023-08-19T05:34:12.235Z,4.80
2023-08-19T05:36:40.135Z,4.82
2023-08-19T05:39:08.030Z,4.60
2023-08-19T05:41:36.208Z,4.30
2023-08-19T05:44:06.395Z,4.25
2023-08-19T05:46:34.903Z,4.40
2023-08-19T05:49:02.991Z,3.65
2023-08-19T05:51:30.854Z,4.28
2023-08-19T05:54:01.785Z,3.80
2023-08-19T05:56:29.669Z,4.20
2023-08-19T05:58:57.499Z,3.92
2023-08-19T06:01:26.931Z,4.10
2023-08-19T06:03:54.841Z,4.00
2023-08-19T06:06:22.737Z,3.72
2023-08-19T06:08:50.595Z,3.60
2023-08-19T06:11:18.497Z,3.80
2023-08-19T06:13:46.307Z,3.72
2023-08-19T06:16:14.422Z,3.60
2023-08-19T06:18:43.786Z,3.47
2023-08-19T06:21:11.660Z,3.55
2023-08-19T06:23:39.650Z,3.55
2023-08-19T06:26:07.518Z,3.72
2023-08-19T06:28:35.573Z,3.33
2023-08-19T06:31:03.532Z,3.50
2023-08-19T06:33:31.993Z,3.13
2023-08-19T06:36:02.612Z,3.65
2023-08-19T06:38:31.954Z,3.50
2023-08-19T06:41:10.469Z,3.40
2023-08-19T06:43:40.069Z,3.70
2023-08-19T06:46:09.340Z,3.75
2023-08-19T06:48:37.825Z,4.07
2023-08-19T06:51:08.016Z,3.42
2023-08-19T06:53:36.415Z,3.65
2023-08-19T06:56:10.076Z,3.83
2023-08-19T06:58:42.693Z,3.65
2023-08-19T07:01:19.370Z,3.75
2023-08-19T07:03:47.803Z,3.45
2023-08-19T07:06:19.632Z,3.60
2023-08-19T07:08:47.940Z,4.20
2023-08-19T07:11:16.828Z,3.50
2023-08-19T07:13:45.620Z,3.75
2023-08-19T07:16:14.843Z,4.40
2023-08-19T07:18:45.969Z,4.05
2023-08-19T07:21:17.434Z,4.10
2023-08-19T07:23:47.848Z,4.40
2023-08-19T07:26:16.629Z,4.25
2023-08-19T07:28:45.050Z,4.47
2023-08-19T07:31:13.366Z,4.10
2023-08-19T07:33:41.307Z,4.15
2023-08-19T07:36:09.882Z,4.43
2023-08-19T07:38:39.372Z,5.45
2023-08-19T07:41:07.354Z,4.75
2023-08-19T07:43:35.417Z,4.63
2023-08-19T07:46:03.766Z,4.72
2023-08-19T07:48:33.034Z,4.75
2023-08-19T07:51:00.895Z,4.90
2023-08-19T07:53:28.701Z,4.68
2023-08-19T07:55:57.900Z,4.45
2023-08-19T07:58:25.780Z,5.07
2023-08-19T08:00:53.757Z,5.00
2023-08-19T08:03:21.606Z,5.13
2023-08-19T08:05:49.497Z,4.82
2023-08-19T08:08:17.387Z,4.68
2023-08-19T08:10:45.442Z,5.05
2023-08-19T08:13:14.677Z,4.93
2023-08-19T08:15:42.572Z,4.80
2023-08-19T08:18:10.343Z,5.40
2023-08-19T08:20:40.250Z,5.53
2023-08-19T08:23:08.073Z,5.47
2023-08-19T08:25:35.892Z,5.53
2023-08-19T08:28:03.766Z,5.53
2023-08-19T08:30:33.024Z,6.07
2023-08-19T08:33:03.813Z,6.10
2023-08-19T08:35:32.097Z,6.00
2023-08-19T08:37:59.852Z,5.88
2023-08-19T08:40:27.657Z,5.15
2023-08-19T08:42:57.143Z,6.18
2023-08-19T08:45:27.299Z,5.40
2023-08-19T08:47:56.793Z,6.00
2023-08-19T08:50:24.889Z,5.85
2023-08-19T08:52:52.806Z,6.20
2023-08-19T08:55:20.669Z,5.80
2023-08-19T08:57:48.568Z,6.00
2023-08-19T09:00:17.722Z,6.13
2023-08-19T09:02:48.329Z,5.82
2023-08-19T09:05:20.435Z,6.70
2023-08-19T09:07:50.912Z,5.63
2023-08-19T09:10:25.630Z,5.68
2023-08-19T09:12:59.025Z,5.70
2023-08-19T09:15:29.971Z,6.10
2023-08-19T09:17:59.130Z,5.75
2023-08-19T09:20:30.214Z,5.20
2023-08-19T09:23:08.743Z,5.97
2023-08-19T09:25:38.321Z,5.68
2023-08-19T09:28:06.571Z,6.00
2023-08-19T09:30:35.170Z,6.25
2023-08-19T09:33:03.471Z,6.03
2023-08-19T09:35:53.024Z,6.13
2023-08-19T09:38:27.120Z,5.90
2023-08-19T09:41:03.537Z,6.43
2023-08-19T09:43:31.525Z,6.07
2023-08-19T09:46:00.193Z,6.80
2023-08-19T09:48:28.274Z,6.78
2023-08-19T09:50:57.743Z,6.50
2023-08-19T09:53:30.488Z,7.18
2023-08-19T09:55:58.556Z,6.78
2023-08-19T09:58:27.357Z,6.10
2023-08-19T10:00:55.341Z,6.57
2023-08-19T10:03:23.864Z,6.97
2023-08-19T10:05:53.965Z,7.13
2023-08-19T10:08:28.304Z,6.07
2023-08-19T10:10:56.451Z,7.05
2023-08-19T10:13:26.672Z,6.40
2023-08-19T10:15:59.378Z,7.15
2023-08-19T10:18:32.267Z,7.20
2023-08-19T10:21:05.722Z,6.68
2023-08-19T10:23:37.518Z,6.30
2023-08-19T10:26:05.655Z,6.82
2023-08-19T10:28:34.333Z,6.90
2023-08-19T10:31:10.155Z,6.30
2023-08-19T10:33:44.218Z,6.50
2023-08-19T10:36:15.968Z,6.13
2023-08-19T10:38:49.705Z,6.30
2023-08-19T10:41:20.340Z,6.18
2023-08-19T10:43:56.897Z,6.75
2023-08-19T10:46:43.810Z,6.47
2023-08-19T10:49:15.687Z,6.00
2023-08-19T10:54:16.684Z,5.68
2023-08-19T10:56:54.624Z,5.95
2023-08-19T10:59:23.126Z,5.65
2023-08-19T11:01:51.688Z,6.03
2023-08-19T11:04:20.487Z,5.97
2023-08-19T11:06:53.889Z,6.30
2023-08-19T11:09:25.646Z,5.05
2023-08-19T11:11:53.690Z,5.80
2023-08-19T11:14:22.279Z,5.90
2023-08-19T11:16:50.479Z,5.43
2023-08-19T11:19:18.938Z,5.35
2023-08-19T11:21:47.597Z,5.22
2023-08-19T11:24:16.056Z,5.07
2023-08-19T11:26:46.511Z,5.20
2023-08-19T11:29:14.819Z,5.13
2023-08-19T11:31:43.995Z,6.05
2023-08-19T11:34:13.663Z,6.07
2023-08-19T11:36:42.634Z,5.20
2023-08-19T11:39:12.447Z,5.43
2023-08-19T11:41:41.186Z,5.90
2023-08-19T11:44:10.590Z,5.00
2023-08-19T11:46:38.567Z,5.35
2023-08-19T11:49:08.608Z,5.85
2023-08-19T11:51:38.821Z,5.35
2023-08-19T11:54:09.019Z,5.07
2023-08-19T11:56:47.736Z,5.50
2023-08-19T11:59:17.409Z,4.75
2023-08-19T12:01:47.713Z,4.63
2023-08-19T12:04:17.757Z,4.97
2023-08-19T12:06:46.444Z,6.20
2023-08-19T12:09:14.875Z,4.90
2023-08-19T12:11:43.641Z,5.35
2023-08-19T12:14:11.560Z,5.30
2023-08-19T12:16:40.871Z,5.30
2023-08-19T12:19:08.810Z,5.10
2023-08-19T12:21:36.748Z,5.40
2023-08-19T12:24:04.973Z,6.00
2023-08-19T12:26:32.947Z,5.30
2023-08-19T12:29:00.807Z,5.47
2023-08-19T12:31:28.753Z,6.15
2023-08-19T12:33:58.028Z,5.60
2023-08-19T12:36:25.862Z,5.82
2023-08-19T12:38:54.748Z,4.75
2023-08-19T12:41:22.835Z,4.97
2023-08-19T12:43:50.723Z,4.88
2023-08-19T12:46:18.990Z,5.25
2023-08-19T12:48:46.824Z,4.72
2023-08-19T12:51:18.227Z,4.93
2023-08-19T12:53:46.045Z,5.22
2023-08-19T12:56:13.928Z,5.93
2023-08-19T12:58:41.962Z,4.93
2023-08-19T13:01:09.869Z,5.10
2023-08-19T13:03:37.816Z,4.90
2023-08-19T13:06:05.984Z,5.10
2023-08-19T13:08:35.210Z,5.28
2023-08-19T13:11:02.982Z,5.25
2023-08-19T13:13:30.839Z,4.90
2023-08-19T13:15:58.627Z,6.07
2023-08-19T13:18:26.463Z,5.43
2023-08-19T13:20:54.366Z,5.28
2023-08-19T13:23:22.302Z,5.60
2023-08-19T13:25:52.007Z,5.15
2023-08-19T13:28:19.827Z,5.80
2023-08-19T13:30:47.756Z,5.43
2023-08-19T13:33:16.070Z,5.38
2023-08-19T13:35:43.976Z,5.43
2023-08-19T13:38:11.811Z,5.10
2023-08-19T13:40:39.604Z,5.50
2023-08-19T13:43:08.824Z,5.03
2023-08-19T13:45:36.672Z,7.22
2023-08-19T13:48:14.724Z,5.28
2023-08-19T13:50:43.476Z,5.18
2023-08-19T13:53:11.369Z,5.10
2023-08-19T13:55:40.274Z,5.13
2023-08-19T13:58:09.586Z,5.13
2023-08-19T14:00:37.857Z,5.32
2023-08-19T14:03:07.670Z,5.63
2023-08-19T14:05:36.252Z,5.97
2023-08-19T14:08:04.215Z,5.35
2023-08-19T14:10:32.111Z,5.10
2023-08-19T14:13:01.034Z,5.20
2023-08-19T14:15:30.401Z,5.03
2023-08-19T14:17:58.423Z,5.20
2023-08-19T14:20:26.491Z,5.80
2023-08-19T14:22:54.333Z,4.85
2023-08-19T14:25:22.176Z,5.20
2023-08-19T14:27:50.175Z,5.35
2023-08-19T14:30:17.996Z,4.95
2023-08-19T14:32:47.250Z,5.03
2023-08-19T14:35:15.295Z,5.70
2023-08-19T14:37:43.153Z,5.10
2023-08-19T14:40:11.775Z,5.38
2023-08-19T14:42:40.040Z,5.72
2023-08-19T14:45:09.108Z,5.13
2023-08-19T14:47:37.208Z,6.43
2023-08-19T14:50:08.313Z,4.85
2023-08-19T14:52:36.424Z,5.23
2023-08-19T14:55:05.250Z,5.22
2023-08-19T14:57:34.296Z,5.63
2023-08-19T15:00:02.649Z,5.60
2023-08-19T15:02:45.784Z,5.60
2023-08-19T15:05:16.127Z,5.65
2023-08-19T15:07:44.329Z,5.40
2023-08-19T15:10:12.726Z,5.68
2023-08-19T15:12:40.579Z,5.00
2023-08-19T15:15:11.554Z,6.00
2023-08-19T15:17:39.379Z,5.80
2023-08-19T15:20:08.885Z,5.40
2023-08-19T15:22:38.199Z,5.63
2023-08-19T15:25:06.954Z,5.55
2023-08-19T15:27:34.895Z,6.05
2023-08-19T15:30:02.929Z,6.07
2023-08-19T15:32:30.753Z,5.90
2023-08-19T15:34:58.607Z,5.57
2023-08-19T15:37:26.514Z,5.95
2023-08-19T15:39:55.736Z,9.15
2023-08-19T15:42:23.574Z,7.00
2023-08-19T15:44:51.582Z,6.15
2023-08-19T15:47:19.481Z,6.15
2023-08-19T15:49:47.386Z,5.85
2023-08-19T15:52:15.214Z,6.15
2023-08-19T15:54:43.366Z,6.55
2023-08-19T15:57:12.572Z,8.18
2023-08-19T15:59:40.347Z,6.35
2023-08-19T16:02:08.480Z,6.75
2023-08-19T16:04:36.355Z,6.35
2023-08-19T16:07:05.871Z,5.82
2023-08-19T16:09:33.865Z,6.40
2023-08-19T16:12:03.487Z,6.90
2023-08-19T16:14:32.678Z,6.57
2023-08-19T16:17:01.482Z,7.63
2023-08-19T16:19:29.345Z,6.25
2023-08-19T16:21:57.144Z,6.07
2023-08-19T16:24:24.960Z,5.78
2023-08-19T16:26:52.725Z,6.05
2023-08-19T16:29:20.542Z,5.68
2023-08-19T16:31:49.705Z,6.72
2023-08-19T16:34:17.566Z,10.75
2023-08-19T16:36:45.468Z,11.77
2023-08-19T16:39:13.241Z,6.20
2023-08-19T16:41:41.100Z,7.00
2023-08-19T16:44:08.973Z,6.10
2023-08-19T16:46:37.088Z,6.20
2023-08-19T16:49:06.598Z,6.70
2023-08-19T16:51:34.588Z,6.60
2023-08-19T16:54:02.417Z,6.22
2023-08-19T16:56:30.263Z,6.25
2023-08-19T16:58:58.074Z,6.45
2023-08-19T17:01:25.941Z,6.72
2023-08-19T17:03:54.121Z,6.07
2023-08-19T17:06:23.394Z,6.22
2023-08-19T17:08:52.901Z,6.43
2023-08-19T17:11:20.878Z,6.53
2023-08-19T17:13:48.843Z,6.43
2023-08-19T17:16:16.727Z,5.95
2023-08-19T17:18:44.642Z,6.45
2023-08-19T17:21:12.500Z,6.63
2023-08-19T17:23:42.186Z,6.60
2023-08-19T17:26:10.198Z,6.30
2023-08-19T17:28:38.041Z,6.40
2023-08-19T17:31:07.014Z,6.30
2023-08-19T17:33:35.058Z,6.75
2023-08-19T17:36:04.875Z,6.55
2023-08-19T17:38:33.117Z,7.15
2023-08-19T17:41:04.396Z,6.60
2023-08-19T17:43:33.018Z,6.40
2023-08-19T17:46:03.464Z,6.63
2023-08-19T17:48:32.017Z,7.10
2023-08-19T17:51:03.146Z,6.97
2023-08-19T17:53:33.132Z,7.25
2023-08-19T17:56:03.540Z,6.97
2023-08-19T17:58:32.426Z,7.15
2023-08-19T18:01:01.644Z,6.90
2023-08-19T18:03:29.509Z,7.03
2023-08-19T18:05:57.409Z,7.00
2023-08-19T18:08:25.378Z,7.05
2023-08-19T18:10:53.696Z,6.90
2023-08-19T18:13:23.053Z,7.10
2023-08-19T18:15:50.898Z,6.88
2023-08-19T18:18:18.804Z,7.28
2023-08-19T18:20:46.597Z,7.00
2023-08-19T18:23:14.553Z,7.22
2023-08-19T18:25:42.470Z,7.40
2023-08-19T18:28:10.774Z,7.28
2023-08-19T18:30:40.078Z,7.68
2023-08-19T18:33:08.055Z,7.00
2023-08-19T18:35:36.068Z,7.07
2023-08-19T18:38:04.538Z,7.57
2023-08-19T18:40:34.424Z,7.65
2023-08-19T18:43:02.321Z,7.53
2023-08-19T18:45:30.160Z,7.57
2023-08-19T18:48:09.663Z,7.20
2023-08-19T18:50:39.131Z,7.20
2023-08-19T18:53:07.984Z,7.28
2023-08-19T18:55:38.255Z,7.20
2023-08-19T18:58:06.338Z,7.53
2023-08-19T19:00:34.780Z,6.82
2023-08-19T19:03:03.487Z,6.80
2023-08-19T19:05:35.088Z,6.70
2023-08-19T19:08:03.529Z,7.78
2023-08-19T19:10:31.418Z,7.05
2023-08-19T19:12:59.855Z,6.75
2023-08-19T19:15:27.685Z,6.85
2023-08-19T19:17:58.068Z,7.07
2023-08-19T19:20:27.261Z,7.18
2023-08-19T19:22:58.961Z,7.47
2023-08-19T19:25:27.700Z,6.07
2023-08-19T19:27:56.156Z,6.65
2023-08-19T19:30:27.073Z,6.75
2023-08-19T19:32:55.159Z,7.03
2023-08-19T19:35:23.485Z,6.75
2023-08-19T19:37:51.256Z,6.93
2023-08-19T19:40:21.185Z,6.30
2023-08-19T19:42:50.252Z,6.25
2023-08-19T19:45:18.620Z,6.50
2023-08-19T19:47:47.672Z,6.32
2023-08-19T19:50:15.443Z,6.63
2023-08-19T19:52:43.242Z,6.28
2023-08-19T19:55:11.193Z,6.78
2023-08-19T19:57:40.605Z,6.20
2023-08-19T20:00:11.559Z,6.05
2023-08-19T20:02:39.478Z,6.10
2023-08-19T20:05:07.878Z,6.05
2023-08-19T20:07:36.421Z,5.60
2023-08-19T20:10:23.820Z,5.68
2023-08-19T20:12:54.271Z,5.15
2023-08-19T20:15:22.133Z,5.85
2023-08-19T20:17:52.071Z,5.07
2023-08-19T20:20:20.412Z,5.65
2023-08-19T20:22:51.018Z,5.20
2023-08-19T20:25:19.127Z,5.43
2023-08-19T20:27:47.264Z,5.28
2023-08-19T20:30:16.718Z,5.40
2023-08-19T20:32:44.555Z,5.18
2023-08-19T20:35:12.656Z,5.47
2023-08-19T20:37:40.532Z,5.90
2023-08-19T20:40:10.092Z,5.68
2023-08-19T20:42:40.763Z,5.60
2023-08-19T20:45:10.514Z,5.95
2023-08-19T20:47:39.955Z,5.93
2023-08-19T20:50:08.245Z,5.68
2023-08-19T20:52:36.407Z,5.57
2023-08-19T20:55:04.522Z,6.00
2023-08-19T20:57:32.765Z,6.10
2023-08-19T21:00:01.386Z,6.07
2023-08-19T21:02:29.214Z,5.95
2023-08-19T21:04:58.500Z,6.20
2023-08-19T21:07:26.468Z,5.88
2023-08-19T21:09:54.399Z,5.95
2023-08-19T21:12:22.349Z,6.00
2023-08-19T21:14:50.364Z,5.85
2023-08-19T21:17:18.286Z,5.70
2023-08-19T21:19:46.152Z,5.75
2023-08-19T21:22:15.407Z,5.90
2023-08-19T21:24:43.242Z,5.72
2023-08-19T21:27:12.598Z,5.50
2023-08-19T21:29:40.675Z,5.20
2023-08-19T21:32:08.531Z,5.43
2023-08-19T21:34:36.423Z,5.18
2023-08-19T21:37:04.318Z,5.28
2023-08-19T21:39:33.611Z,5.20
2023-08-19T21:42:01.499Z,5.15
2023-08-19T21:44:29.326Z,5.13
2023-08-19T21:46:57.778Z,5.13
2023-08-19T21:49:25.845Z,5.72
2023-08-19T21:51:53.788Z,5.50
2023-08-19T21:54:21.640Z,4.78
2023-08-19T21:56:50.852Z,6.03
2023-08-19T21:59:18.721Z,4.97
2023-08-19T22:01:46.696Z,5.28
2023-08-19T22:04:14.490Z,5.78
2023-08-19T22:06:42.539Z,5.22
2023-08-19T22:09:10.424Z,5.68
2023-08-19T22:11:38.303Z,5.32
2023-08-19T22:14:07.831Z,6.10
2023-08-19T22:16:36.098Z,5.32
2023-08-19T22:19:04.288Z,5.22
2023-08-19T22:21:32.788Z,5.45
2023-08-19T22:24:00.705Z,5.72
2023-08-19T22:26:28.540Z,5.13
2023-08-19T22:28:56.365Z,5.20
2023-08-19T22:31:25.550Z,5.38
2023-08-19T22:33:53.881Z,5.45
2023-08-19T22:36:21.716Z,5.65
2023-08-19T22:38:52.017Z,5.63
2023-08-19T22:41:20.016Z,5.70
2023-08-19T22:43:47.889Z,5.63
2023-08-19T22:46:15.782Z,5.70
2023-08-19T22:48:45.018Z,5.47
2023-08-19T22:51:13.068Z,6.07
2023-08-19T22:53:40.797Z,5.65
2023-08-19T22:56:08.628Z,6.03
2023-08-19T22:58:36.467Z,5.80
2023-08-19T23:01:04.772Z,5.65
2023-08-19T23:03:32.559Z,5.50
2023-08-19T23:06:01.687Z,5.93
2023-08-19T23:08:29.508Z,5.38
2023-08-19T23:10:57.295Z,5.63
2023-08-19T23:13:25.097Z,5.22
2023-08-19T23:15:53.041Z,5.80
2023-08-19T23:18:20.873Z,5.75
2023-08-19T23:20:48.802Z,6.00
2023-08-19T23:23:17.990Z,5.80
2023-08-19T23:25:46.114Z,6.10
2023-08-19T23:28:14.066Z,6.00
2023-08-19T23:30:41.909Z,5.93
2023-08-19T23:33:09.781Z,6.13
2023-08-19T23:35:37.803Z,6.13
2023-08-19T23:38:06.065Z,5.70
2023-08-19T23:40:35.260Z,6.82
2023-08-19T23:43:03.184Z,6.03
2023-08-19T23:45:31.083Z,6.38
2023-08-19T23:47:59.595Z,5.82
2023-08-19T23:50:28.273Z,6.13
2023-08-19T23:52:59.468Z,6.40
2023-08-19T23:55:28.574Z,6.63
2023-08-19T23:57:58.446Z,6.13
